createdAt,value
2017-08-21T00:00:38.186Z,16.82
2017-08-21T00:01:47.475Z,16.78
2017-08-21T00:02:56.741Z,16.79
2017-08-21T00:04:05.845Z,16.82
2017-08-21T00:05:15.020Z,16.76
2017-08-21T00:06:24.119Z,16.78
2017-08-21T00:07:33.119Z,16.71
2017-08-21T00:08:42.339Z,16.75
2017-08-21T00:09:51.457Z,16.7
2017-08-21T00:11:00.462Z,16.67
2017-08-21T00:12:09.887Z,16.82
2017-08-21T00:13:18.839Z,16.76
2017-08-21T00:14:27.800Z,16.79
2017-08-21T00:15:36.755Z,16.79
2017-08-21T00:16:45.702Z,16.7
2017-08-21T00:17:54.666Z,16.73
2017-08-21T00:19:03.623Z,16.78
2017-08-21T00:20:12.581Z,16.76
2017-08-21T00:21:21.535Z,16.73
2017-08-21T00:22:30.490Z,16.76
2017-08-21T00:23:39.444Z,16.7
2017-08-21T00:24:48.397Z,16.67
2017-08-21T00:25:57.359Z,16.7
2017-08-21T00:27:06.324Z,16.68
2017-08-21T00:28:15.279Z,16.68
2017-08-21T00:29:24.234Z,16.68
2017-08-21T00:30:33.214Z,16.75
2017-08-21T00:31:42.169Z,16.66
2017-08-21T00:32:51.120Z,16.67
2017-08-21T00:34:00.069Z,16.78
2017-08-21T00:35:09.046Z,16.7
2017-08-21T00:36:18.008Z,16.71
2017-08-21T00:37:27.274Z,16.7
2017-08-21T00:38:36.226Z,16.67
2017-08-21T00:39:45.189Z,16.7
2017-08-21T00:40:54.154Z,16.79
2017-08-21T00:42:03.111Z,16.7
2017-08-21T00:43:12.076Z,16.78
2017-08-21T00:44:21.029Z,16.71
2017-08-21T00:45:29.989Z,16.73
2017-08-21T00:46:39.586Z,16.68
2017-08-21T00:47:48.541Z,16.64
2017-08-21T00:48:57.501Z,16.57
2017-08-21T00:50:06.473Z,16.64
2017-08-21T00:51:15.444Z,16.57
2017-08-21T00:52:24.391Z,16.53
2017-08-21T00:53:33.358Z,16.56
2017-08-21T00:54:42.310Z,16.53
2017-08-21T00:55:51.259Z,16.6
2017-08-21T00:57:00.211Z,16.56
2017-08-21T00:58:09.163Z,16.45
2017-08-21T00:59:18.117Z,16.56
2017-08-21T01:00:27.082Z,16.49
2017-08-21T01:01:36.039Z,16.56
2017-08-21T01:02:44.991Z,16.48
2017-08-21T01:03:53.943Z,16.39
2017-08-21T01:05:02.923Z,16.42
2017-08-21T01:06:11.884Z,16.45
2017-08-21T01:07:20.844Z,16.39
2017-08-21T01:08:29.808Z,16.41
2017-08-21T01:09:38.766Z,16.41
2017-08-21T01:10:47.727Z,16.39
2017-08-21T01:11:57.002Z,16.41
2017-08-21T01:13:06.300Z,16.34
2017-08-21T01:14:15.257Z,16.33
2017-08-21T01:15:24.212Z,16.3
2017-08-21T01:16:33.176Z,16.31
2017-08-21T01:17:42.132Z,16.33
2017-08-21T01:18:51.087Z,16.33
2017-08-21T01:20:00.048Z,16.27
2017-08-21T01:21:09.012Z,16.15
2017-08-21T01:22:17.961Z,16.15
2017-08-21T01:23:26.919Z,16.17
2017-08-21T01:24:35.872Z,16.14
2017-08-21T01:25:44.826Z,16.17
2017-08-21T01:26:53.777Z,16.17
2017-08-21T01:28:02.727Z,16.11
2017-08-21T01:29:11.682Z,16.2
2017-08-21T01:30:20.637Z,16.21
2017-08-21T01:31:29.589Z,16.15
2017-08-21T01:32:38.547Z,16.15
2017-08-21T01:33:47.529Z,16.14
2017-08-21T01:34:56.485Z,16.14
2017-08-21T01:36:05.754Z,16.14
2017-08-21T01:37:14.707Z,16.14
2017-08-21T01:38:23.988Z,16.15
2017-08-21T01:39:32.943Z,16.23
2017-08-21T01:40:41.919Z,16.23
2017-08-21T01:41:50.882Z,16.14
2017-08-21T01:42:59.830Z,16.12
2017-08-21T01:44:09.110Z,16.15
2017-08-21T01:45:18.060Z,16.09
2017-08-21T01:46:27.018Z,16.09
2017-08-21T01:47:36.292Z,16.25
2017-08-21T01:48:45.251Z,16.14
2017-08-21T01:49:54.204Z,16.17
2017-08-21T01:51:03.489Z,16.11
2017-08-21T01:52:12.443Z,16.21
2017-08-21T01:53:21.394Z,16.21
2017-08-21T01:54:30.346Z,16.09
2017-08-21T01:55:39.302Z,16.09
2017-08-21T01:56:48.269Z,16.01
2017-08-21T01:57:57.222Z,16.08
2017-08-21T01:59:06.173Z,16.02
2017-08-21T02:00:15.131Z,16.07
2017-08-21T02:01:24.080Z,15.97
2017-08-21T02:02:33.024Z,16.01
2017-08-21T02:03:41.977Z,16.05
2017-08-21T02:04:51.254Z,16.02
2017-08-21T02:06:00.211Z,16.04
2017-08-21T02:07:09.173Z,16.09
2017-08-21T02:08:18.133Z,16.14
2017-08-21T02:09:27.082Z,16.12
2017-08-21T02:10:36.036Z,16.15
2017-08-21T02:11:44.988Z,16.21
2017-08-21T02:12:53.937Z,16.11
2017-08-21T02:14:02.892Z,16.14
2017-08-21T02:15:11.841Z,15.96
2017-08-21T02:16:20.799Z,16.11
2017-08-21T02:17:29.779Z,16.08
2017-08-21T02:18:39.061Z,16.08
2017-08-21T02:19:48.016Z,16.07
2017-08-21T02:20:56.974Z,16.11
2017-08-21T02:22:05.958Z,16.17
2017-08-21T02:23:15.241Z,16.07
2017-08-21T02:24:24.230Z,16.08
2017-08-21T02:25:33.188Z,16.02
2017-08-21T02:26:42.143Z,16.08
2017-08-21T02:27:51.103Z,16.11
2017-08-21T02:29:00.064Z,16.11
2017-08-21T02:30:09.339Z,16.07
2017-08-21T02:31:18.329Z,16.08
2017-08-21T02:32:27.283Z,15.97
2017-08-21T02:33:36.240Z,16
2017-08-21T02:34:45.199Z,16.04
2017-08-21T02:35:54.154Z,16.02
2017-08-21T02:37:03.115Z,16.04
2017-08-21T02:38:12.080Z,15.94
2017-08-21T02:39:21.357Z,15.97
2017-08-21T02:40:30.311Z,16.01
2017-08-21T02:41:39.276Z,16.01
2017-08-21T02:42:48.225Z,16.04
2017-08-21T02:43:57.181Z,15.97
2017-08-21T02:45:06.134Z,15.92
2017-08-21T02:46:15.101Z,15.96
2017-08-21T02:47:24.075Z,16.04
2017-08-21T02:48:33.030Z,16.02
2017-08-21T02:49:41.977Z,15.93
2017-08-21T02:50:51.261Z,16.01
2017-08-21T02:52:00.225Z,16
2017-08-21T02:53:09.187Z,15.97
2017-08-21T02:54:18.145Z,15.97
2017-08-21T02:55:27.109Z,15.87
2017-08-21T02:56:36.082Z,15.97
2017-08-21T02:57:45.031Z,15.89
2017-08-21T02:58:53.983Z,15.89
2017-08-21T03:00:02.939Z,15.93
2017-08-21T03:01:11.896Z,15.89
2017-08-21T03:02:20.851Z,15.93
2017-08-21T03:03:29.798Z,15.89
2017-08-21T03:04:38.751Z,15.87
2017-08-21T03:05:47.705Z,15.87
2017-08-21T03:06:56.660Z,15.89
2017-08-21T03:08:05.938Z,15.93
2017-08-21T03:09:14.899Z,15.93
2017-08-21T03:10:23.852Z,15.97
2017-08-21T03:11:32.824Z,15.89
2017-08-21T03:12:41.778Z,15.89
2017-08-21T03:13:50.729Z,15.86
2017-08-21T03:14:59.685Z,15.87
2017-08-21T03:16:08.647Z,15.92
2017-08-21T03:17:17.601Z,15.89
2017-08-21T03:18:26.552Z,15.92
2017-08-21T03:19:35.505Z,15.87
2017-08-21T03:20:44.459Z,15.82
2017-08-21T03:21:53.423Z,15.86
2017-08-21T03:23:02.378Z,15.87
2017-08-21T03:24:11.340Z,15.9
2017-08-21T03:25:20.312Z,15.9
2017-08-21T03:26:29.268Z,15.9
2017-08-21T03:27:38.229Z,15.89
2017-08-21T03:28:47.180Z,15.87
2017-08-21T03:29:56.131Z,15.89
2017-08-21T03:31:05.092Z,15.94
2017-08-21T03:32:14.063Z,15.94
2017-08-21T03:33:23.031Z,15.83
2017-08-21T03:34:32.001Z,15.97
2017-08-21T03:35:41.270Z,15.97
2017-08-21T03:36:50.241Z,15.87
2017-08-21T03:37:59.212Z,15.97
2017-08-21T03:39:08.171Z,16.02
2017-08-21T03:40:17.135Z,15.96
2017-08-21T03:41:26.089Z,16.02
2017-08-21T03:42:35.043Z,15.94
2017-08-21T03:43:43.998Z,15.93
2017-08-21T03:44:52.958Z,15.86
2017-08-21T03:46:01.917Z,16
2017-08-21T03:47:10.866Z,15.97
2017-08-21T03:48:19.826Z,16.04
2017-08-21T03:49:28.772Z,15.97
2017-08-21T03:50:37.821Z,16
2017-08-21T03:51:46.768Z,15.94
2017-08-21T03:52:55.723Z,16
2017-08-21T03:54:04.669Z,16
2017-08-21T03:55:13.617Z,15.97
2017-08-21T03:56:22.577Z,15.97
2017-08-21T03:57:31.529Z,16.02
2017-08-21T03:58:40.486Z,15.96
2017-08-21T03:59:49.777Z,16
2017-08-21T04:00:58.727Z,16.04
2017-08-21T04:02:08.024Z,16
2017-08-21T04:03:16.985Z,16.02
2017-08-21T04:04:25.939Z,16.07
2017-08-21T04:05:34.929Z,16.05
2017-08-21T04:06:43.880Z,15.97
2017-08-21T04:07:52.841Z,16.04
2017-08-21T04:09:01.794Z,16.08
2017-08-21T04:10:10.754Z,16.07
2017-08-21T04:11:20.034Z,16.11
2017-08-21T04:12:29.318Z,16.08
2017-08-21T04:13:38.278Z,16.09
2017-08-21T04:14:47.230Z,16.08
2017-08-21T04:15:56.511Z,16.2
2017-08-21T04:17:05.468Z,16.17
2017-08-21T04:18:14.425Z,16.14
2017-08-21T04:19:23.376Z,16.24
2017-08-21T04:20:32.341Z,16.15
2017-08-21T04:21:41.294Z,16.17
2017-08-21T04:22:50.250Z,16.05
2017-08-21T04:23:59.202Z,16.07
2017-08-21T04:25:08.146Z,16.21
2017-08-21T04:26:17.107Z,16.14
2017-08-21T04:27:26.066Z,16.12
2017-08-21T04:28:35.056Z,16.14
2017-08-21T04:29:44.007Z,16.15
2017-08-21T04:30:52.963Z,16.17
2017-08-21T04:32:02.335Z,16.08
2017-08-21T04:33:11.297Z,16.11
2017-08-21T04:34:20.245Z,16.21
2017-08-21T04:35:29.192Z,16.21
2017-08-21T04:36:38.142Z,16.2
2017-08-21T04:37:47.424Z,16.17
2017-08-21T04:38:56.470Z,16.15
2017-08-21T04:40:05.504Z,16.14
2017-08-21T04:41:14.784Z,16.17
2017-08-21T04:42:23.727Z,16.17
2017-08-21T04:43:32.681Z,16.17
2017-08-21T04:44:41.632Z,16.15
2017-08-21T04:45:50.589Z,16.21
2017-08-21T04:46:59.868Z,16.2
2017-08-21T04:48:08.846Z,16.12
2017-08-21T04:49:17.802Z,16.15
2017-08-21T04:50:26.771Z,16.17
2017-08-21T04:51:35.723Z,16.14
2017-08-21T04:52:44.672Z,16.12
2017-08-21T04:53:53.630Z,16.12
2017-08-21T04:55:02.586Z,16.2
2017-08-21T04:56:11.533Z,16.14
2017-08-21T04:57:20.492Z,16.17
2017-08-21T04:58:29.444Z,16.25
2017-08-21T04:59:38.404Z,16.15
2017-08-21T05:00:47.367Z,16.23
2017-08-21T05:01:56.659Z,16.28
2017-08-21T05:03:05.610Z,16.28
2017-08-21T05:04:14.578Z,16.35
2017-08-21T05:05:23.537Z,16.38
2017-08-21T05:06:32.494Z,16.35
2017-08-21T05:07:41.474Z,16.34
2017-08-21T05:08:50.427Z,16.31
2017-08-21T05:09:59.399Z,16.24
2017-08-21T05:11:08.445Z,16.15
2017-08-21T05:12:17.401Z,16.23
2017-08-21T05:13:26.349Z,16.12
2017-08-21T05:14:35.303Z,16.17
2017-08-21T05:15:44.259Z,16.11
2017-08-21T05:16:53.210Z,16.15
2017-08-21T05:18:02.160Z,16.24
2017-08-21T05:19:11.438Z,16.17
2017-08-21T05:20:20.385Z,16.21
2017-08-21T05:21:29.331Z,16.24
2017-08-21T05:22:38.289Z,16.17
2017-08-21T05:23:47.237Z,16.15
2017-08-21T05:24:56.192Z,16.17
2017-08-21T05:26:05.476Z,16.21
2017-08-21T05:27:14.427Z,16.21
2017-08-21T05:28:23.375Z,16.28
2017-08-21T05:29:32.329Z,16.28
2017-08-21T05:30:41.290Z,16.33
2017-08-21T05:31:50.235Z,16.33
2017-08-21T05:32:59.842Z,16.31
2017-08-21T05:34:08.802Z,16.31
2017-08-21T05:35:17.756Z,16.25
2017-08-21T05:36:26.701Z,16.17
2017-08-21T05:37:35.657Z,16.2
2017-08-21T05:38:44.640Z,16.27
2017-08-21T05:39:53.598Z,16.2
2017-08-21T05:41:02.869Z,16.09
2017-08-21T05:42:11.819Z,16.15
2017-08-21T05:43:20.775Z,16.2
2017-08-21T05:44:29.729Z,16.14
2017-08-21T05:45:38.674Z,16.17
2017-08-21T05:46:47.961Z,16.11
2017-08-21T05:47:56.929Z,16.15
2017-08-21T05:49:05.878Z,16.11
2017-08-21T05:50:14.829Z,16.14
2017-08-21T05:51:24.115Z,16.23
2017-08-21T05:52:33.065Z,16.2
2017-08-21T05:53:42.019Z,16.24
2017-08-21T05:54:50.969Z,16.23
2017-08-21T05:55:59.927Z,16.24
2017-08-21T05:57:08.888Z,16.27
2017-08-21T05:58:17.846Z,16.34
2017-08-21T05:59:26.796Z,16.3
2017-08-21T06:00:35.749Z,16.25
2017-08-21T06:01:44.699Z,16.2
2017-08-21T06:02:53.652Z,16.24
2017-08-21T06:04:02.615Z,16.27
2017-08-21T06:05:11.580Z,16.17
2017-08-21T06:06:20.537Z,16.23
2017-08-21T06:07:29.489Z,16.2
2017-08-21T06:08:38.441Z,16.2
2017-08-21T06:09:47.406Z,16.21
2017-08-21T06:10:56.358Z,16.24
2017-08-21T06:12:05.314Z,16.3
2017-08-21T06:13:14.273Z,16.3
2017-08-21T06:14:23.229Z,16.33
2017-08-21T06:15:32.504Z,16.34
2017-08-21T06:16:41.469Z,16.33
2017-08-21T06:17:50.424Z,16.33
2017-08-21T06:18:59.366Z,16.33
2017-08-21T06:20:08.325Z,16.42
2017-08-21T06:21:17.312Z,16.43
2017-08-21T06:22:26.264Z,16.45
2017-08-21T06:23:35.223Z,16.43
2017-08-21T06:24:44.179Z,16.42
2017-08-21T06:25:53.175Z,16.46
2017-08-21T06:27:02.121Z,16.46
2017-08-21T06:28:11.073Z,16.49
2017-08-21T06:29:20.049Z,16.45
2017-08-21T06:30:29.334Z,16.42
2017-08-21T06:31:38.296Z,16.48
2017-08-21T06:32:47.252Z,16.48
2017-08-21T06:33:56.232Z,16.48
2017-08-21T06:35:05.182Z,16.45
2017-08-21T06:36:14.135Z,16.5
2017-08-21T06:37:23.093Z,16.49
2017-08-21T06:38:32.047Z,16.52
2017-08-21T06:39:41.339Z,16.5
2017-08-21T06:40:50.584Z,16.45
2017-08-21T06:41:59.538Z,16.46
2017-08-21T06:43:08.494Z,16.52
2017-08-21T06:44:17.468Z,16.5
2017-08-21T06:45:26.437Z,16.49
2017-08-21T06:46:35.386Z,16.48
2017-08-21T06:47:44.344Z,16.57
2017-08-21T06:48:53.299Z,16.58
2017-08-21T06:50:02.581Z,16.56
2017-08-21T06:51:11.539Z,16.56
2017-08-21T06:52:20.503Z,16.56
2017-08-21T06:53:29.467Z,16.57
2017-08-21T06:54:38.421Z,16.58
2017-08-21T06:55:47.373Z,16.57
2017-08-21T06:56:56.331Z,16.52
2017-08-21T06:58:05.284Z,16.64
2017-08-21T06:59:14.252Z,16.58
2017-08-21T07:00:23.200Z,16.71
2017-08-21T07:01:32.180Z,16.73
2017-08-21T07:02:41.390Z,16.68
2017-08-21T07:03:50.429Z,16.68
2017-08-21T07:05:09.753Z,16.67
2017-08-21T07:06:41.550Z,16.7
2017-08-21T07:08:15.113Z,16.75
2017-08-21T07:09:49.128Z,16.73
2017-08-21T07:11:19.275Z,16.71
2017-08-21T07:12:49.662Z,16.75
2017-08-21T07:14:18.945Z,16.73
2017-08-21T07:15:52.722Z,16.75
2017-08-21T07:17:23.882Z,16.75
2017-08-21T07:18:53.983Z,16.73
2017-08-21T07:20:24.347Z,16.78
2017-08-21T07:21:57.396Z,16.78
2017-08-21T07:23:27.727Z,16.78
2017-08-21T07:24:58.596Z,16.85
2017-08-21T07:26:30.541Z,16.86
2017-08-21T07:28:04.618Z,16.88
2017-08-21T07:29:16.077Z,16.85
2017-08-21T07:30:25.061Z,16.89
2017-08-21T07:31:34.336Z,16.94
2017-08-21T07:32:43.317Z,16.94
2017-08-21T07:33:52.266Z,16.94
2017-08-21T07:35:01.230Z,16.94
2017-08-21T07:36:10.187Z,16.93
2017-08-21T07:37:19.138Z,16.93
2017-08-21T07:38:28.085Z,16.94
2017-08-21T07:39:37.048Z,17.04
2017-08-21T07:40:46.030Z,16.91
2017-08-21T07:41:54.988Z,16.94
2017-08-21T07:43:04.457Z,16.96
2017-08-21T07:44:13.422Z,16.97
2017-08-21T07:45:22.385Z,16.97
2017-08-21T07:46:31.339Z,17.01
2017-08-21T07:47:40.293Z,17
2017-08-21T07:48:49.599Z,16.98
2017-08-21T07:50:02.215Z,16.97
2017-08-21T07:51:14.450Z,17
2017-08-21T07:52:23.693Z,17.11
2017-08-21T07:53:32.695Z,17.07
2017-08-21T07:54:41.942Z,17.11
2017-08-21T07:55:52.338Z,17.16
2017-08-21T07:57:01.302Z,17.14
2017-08-21T07:58:10.579Z,17.11
2017-08-21T07:59:19.535Z,17.19
2017-08-21T08:00:28.499Z,17.23
2017-08-21T08:01:37.455Z,17.37
2017-08-21T08:02:46.425Z,17.38
2017-08-21T08:03:55.506Z,17.4
2017-08-21T08:05:04.807Z,17.44
2017-08-21T08:06:13.784Z,17.43
2017-08-21T08:07:23.099Z,17.41
2017-08-21T08:08:32.078Z,17.4
2017-08-21T08:09:41.384Z,17.44
2017-08-21T08:10:50.372Z,17.4
2017-08-21T08:11:59.351Z,17.43
2017-08-21T08:13:08.354Z,17.49
2017-08-21T08:14:17.326Z,17.46
2017-08-21T08:15:26.304Z,17.38
2017-08-21T08:16:35.595Z,17.41
2017-08-21T08:17:44.577Z,17.49
2017-08-21T08:18:53.895Z,17.56
2017-08-21T08:20:02.868Z,17.59
2017-08-21T08:21:11.849Z,17.58
2017-08-21T08:22:20.828Z,17.58
2017-08-21T08:23:29.785Z,17.64
2017-08-21T08:24:38.752Z,17.66
2017-08-21T08:25:47.707Z,17.63
2017-08-21T08:26:56.672Z,17.66
2017-08-21T08:28:05.666Z,17.63
2017-08-21T08:29:14.651Z,17.64
2017-08-21T08:30:23.611Z,17.68
2017-08-21T08:31:32.561Z,17.78
2017-08-21T08:32:41.526Z,17.75
2017-08-21T08:33:50.490Z,17.79
2017-08-21T08:34:59.448Z,17.77
2017-08-21T08:36:08.402Z,17.79
2017-08-21T08:37:17.380Z,17.82
2017-08-21T08:38:26.341Z,17.84
2017-08-21T08:39:35.295Z,17.84
2017-08-21T08:40:44.263Z,17.9
2017-08-21T08:41:53.220Z,17.81
2017-08-21T08:43:02.180Z,17.82
2017-08-21T08:44:11.828Z,17.96
2017-08-21T08:45:20.786Z,18.03
2017-08-21T08:46:29.742Z,18
2017-08-21T08:47:38.700Z,18.12
2017-08-21T08:48:47.667Z,18.12
2017-08-21T08:49:56.620Z,18.08
2017-08-21T08:51:05.579Z,18.08
2017-08-21T08:52:14.534Z,18.11
2017-08-21T08:53:23.501Z,18.12
2017-08-21T08:54:32.456Z,18.27
2017-08-21T08:55:41.414Z,18.25
2017-08-21T08:56:50.370Z,18.21
2017-08-21T08:57:59.327Z,18.25
2017-08-21T08:59:08.287Z,18.29
2017-08-21T09:00:17.319Z,18.23
2017-08-21T09:01:26.273Z,18.27
2017-08-21T09:02:35.420Z,18.25
2017-08-21T09:03:44.522Z,18.39
2017-08-21T09:04:53.806Z,18.35
2017-08-21T09:06:03.036Z,18.29
2017-08-21T09:07:12.229Z,18.39
2017-08-21T09:08:21.377Z,18.33
2017-08-21T09:09:30.538Z,18.36
2017-08-21T09:10:39.653Z,18.41
2017-08-21T09:11:48.763Z,18.35
2017-08-21T09:12:57.889Z,18.35
2017-08-21T09:14:07.325Z,18.48
2017-08-21T09:15:16.504Z,18.48
2017-08-21T09:16:25.715Z,18.45
2017-08-21T09:17:34.830Z,18.54
2017-08-21T09:18:43.996Z,18.54
2017-08-21T09:19:53.195Z,18.58
2017-08-21T09:21:02.383Z,18.66
2017-08-21T09:22:11.449Z,18.55
2017-08-21T09:23:20.414Z,18.65
2017-08-21T09:24:29.452Z,18.66
2017-08-21T09:25:38.443Z,18.67
2017-08-21T09:26:47.405Z,18.73
2017-08-21T09:27:56.363Z,18.63
2017-08-21T09:29:05.323Z,18.66
2017-08-21T09:30:14.289Z,18.69
2017-08-21T09:31:23.243Z,18.67
2017-08-21T09:32:32.606Z,18.78
2017-08-21T09:33:41.561Z,18.78
2017-08-21T09:34:50.666Z,18.85
2017-08-21T09:35:59.695Z,18.8
2017-08-21T09:37:08.819Z,18.88
2017-08-21T09:38:17.791Z,18.84
2017-08-21T09:39:26.968Z,18.88
2017-08-21T09:40:36.429Z,19.04
2017-08-21T09:41:45.702Z,19.06
2017-08-21T09:42:54.856Z,19.13
2017-08-21T09:44:04.033Z,19.22
2017-08-21T09:45:13.210Z,19.22
2017-08-21T09:46:22.375Z,19.22
2017-08-21T09:47:31.451Z,19.28
2017-08-21T09:48:40.716Z,19.25
2017-08-21T09:49:49.782Z,19.23
2017-08-21T09:50:58.829Z,19.19
2017-08-21T09:52:08.023Z,19.16
2017-08-21T09:53:17.129Z,19.26
2017-08-21T09:54:26.609Z,19.23
2017-08-21T09:55:35.880Z,19.23
2017-08-21T09:56:45.086Z,19.16
2017-08-21T09:57:54.140Z,19.11
2017-08-21T09:59:03.113Z,19.07
2017-08-21T10:00:12.080Z,19
2017-08-21T10:01:21.038Z,18.99
2017-08-21T10:02:30.008Z,18.84
2017-08-21T10:03:39.293Z,18.82
2017-08-21T10:04:48.250Z,18.75
2017-08-21T10:05:57.543Z,18.67
2017-08-21T10:07:06.503Z,18.72
2017-08-21T10:08:15.450Z,18.78
2017-08-21T10:09:24.416Z,18.69
2017-08-21T10:10:33.377Z,18.81
2017-08-21T10:11:42.345Z,18.81
2017-08-21T10:12:51.300Z,18.85
2017-08-21T10:14:00.583Z,18.88
2017-08-21T10:15:09.541Z,18.87
2017-08-21T10:16:18.499Z,18.87
2017-08-21T10:17:27.461Z,18.76
2017-08-21T10:18:36.421Z,18.73
2017-08-21T10:19:45.374Z,18.65
2017-08-21T10:20:54.328Z,18.52
2017-08-21T10:22:03.295Z,18.55
2017-08-21T10:23:12.258Z,18.47
2017-08-21T10:24:21.211Z,18.57
2017-08-21T10:25:30.167Z,18.58
2017-08-21T10:26:39.456Z,18.6
2017-08-21T10:27:48.420Z,18.65
2017-08-21T10:28:57.385Z,18.76
2017-08-21T10:30:06.668Z,18.78
2017-08-21T10:31:15.714Z,18.82
2017-08-21T10:32:24.669Z,18.84
2017-08-21T10:33:33.629Z,18.84
2017-08-21T10:34:42.585Z,18.8
2017-08-21T10:35:51.540Z,18.85
2017-08-21T10:37:00.498Z,18.8
2017-08-21T10:38:09.453Z,18.81
2017-08-21T10:39:18.419Z,18.72
2017-08-21T10:40:27.374Z,18.66
2017-08-21T10:41:36.330Z,18.66
2017-08-21T10:42:45.290Z,18.54
2017-08-21T10:43:54.246Z,18.41
2017-08-21T10:45:03.527Z,18.35
2017-08-21T10:46:12.590Z,18.23
2017-08-21T10:47:21.556Z,18.33
2017-08-21T10:48:30.517Z,18.37
2017-08-21T10:49:39.495Z,18.37
2017-08-21T10:50:48.457Z,18.41
2017-08-21T10:51:57.403Z,18.33
2017-08-21T10:53:06.362Z,18.45
2017-08-21T10:54:15.325Z,18.39
2017-08-21T10:55:24.276Z,18.42
2017-08-21T10:56:33.243Z,18.44
2017-08-21T10:57:42.197Z,18.51
2017-08-21T10:58:51.480Z,18.52
2017-08-21T11:00:00.433Z,18.48
2017-08-21T11:01:09.392Z,18.29
2017-08-21T11:02:18.352Z,18.44
2017-08-21T11:03:27.305Z,18.39
2017-08-21T11:04:36.266Z,18.29
2017-08-21T11:05:45.228Z,18.14
2017-08-21T11:06:54.186Z,17.92
2017-08-21T11:08:03.147Z,17.87
2017-08-21T11:09:12.104Z,17.84
2017-08-21T11:10:21.063Z,17.75
2017-08-21T11:11:30.036Z,17.71
2017-08-21T11:12:38.994Z,17.64
2017-08-21T11:13:47.955Z,17.71
2017-08-21T11:14:56.917Z,17.72
2017-08-21T11:16:05.884Z,17.64
2017-08-21T11:17:14.837Z,17.78
2017-08-21T11:18:23.796Z,17.82
2017-08-21T11:19:32.774Z,17.87
2017-08-21T11:20:41.726Z,17.87
2017-08-21T11:21:50.863Z,17.87
2017-08-21T11:22:59.815Z,17.82
2017-08-21T11:24:08.778Z,17.75
2017-08-21T11:25:17.763Z,17.86
2017-08-21T11:26:26.725Z,17.81
2017-08-21T11:27:35.677Z,17.84
2017-08-21T11:28:44.642Z,17.93
2017-08-21T11:29:53.596Z,17.96
2017-08-21T11:31:02.558Z,18.02
2017-08-21T11:32:11.513Z,18.11
2017-08-21T11:33:21.051Z,18.14
2017-08-21T11:34:30.012Z,18.11
2017-08-21T11:35:38.974Z,17.97
2017-08-21T11:36:47.936Z,18.05
2017-08-21T11:37:57.008Z,18
2017-08-21T11:39:05.964Z,18
2017-08-21T11:40:15.247Z,17.95
2017-08-21T11:41:24.201Z,18
2017-08-21T11:42:33.161Z,17.93
2017-08-21T11:43:42.117Z,18.08
2017-08-21T11:44:51.067Z,17.97
2017-08-21T11:46:00.023Z,18.03
2017-08-21T11:47:08.981Z,18.12
2017-08-21T11:48:17.938Z,18.15
2017-08-21T11:49:26.901Z,18.15
2017-08-21T11:50:35.856Z,18.29
2017-08-21T11:51:44.811Z,18.26
2017-08-21T11:52:53.790Z,18.39
2017-08-21T11:54:03.138Z,18.41
2017-08-21T11:55:12.421Z,18.5
2017-08-21T11:56:21.671Z,18.51
2017-08-21T11:57:30.714Z,18.52
2017-08-21T11:58:39.665Z,18.58
2017-08-21T11:59:48.639Z,18.66
2017-08-21T12:00:57.656Z,18.66
2017-08-21T12:02:06.740Z,18.69
2017-08-21T12:03:15.785Z,18.81
2017-08-21T12:04:24.904Z,18.7
2017-08-21T12:05:33.947Z,18.7
2017-08-21T12:06:43.154Z,18.66
2017-08-21T12:07:52.143Z,18.66
2017-08-21T12:09:01.134Z,18.63
2017-08-21T12:10:10.186Z,18.66
2017-08-21T12:11:19.193Z,18.66
2017-08-21T12:12:28.149Z,18.65
2017-08-21T12:13:37.115Z,18.65
2017-08-21T12:14:46.072Z,18.66
2017-08-21T12:15:55.026Z,18.62
2017-08-21T12:17:03.982Z,18.52
2017-08-21T12:18:12.945Z,18.5
2017-08-21T12:19:21.994Z,18.41
2017-08-21T12:20:31.069Z,18.37
2017-08-21T12:21:40.018Z,18.23
2017-08-21T12:22:48.993Z,18.26
2017-08-21T12:23:57.952Z,18.29
2017-08-21T12:25:06.930Z,18.39
2017-08-21T12:26:15.889Z,18.39
2017-08-21T12:27:24.845Z,18.27
2017-08-21T12:28:33.805Z,18.41
2017-08-21T12:29:42.761Z,18.36
2017-08-21T12:30:51.713Z,18.39
2017-08-21T12:32:00.674Z,18.41
2017-08-21T12:33:09.640Z,18.35
2017-08-21T12:34:18.596Z,18.42
2017-08-21T12:35:27.551Z,18.37
2017-08-21T12:36:36.857Z,18.42
2017-08-21T12:37:45.883Z,18.58
2017-08-21T12:38:54.889Z,18.6
2017-08-21T12:40:03.835Z,18.57
2017-08-21T12:41:12.792Z,18.58
2017-08-21T12:42:21.747Z,18.42
2017-08-21T12:43:30.711Z,18.51
2017-08-21T12:44:39.676Z,18.48
2017-08-21T12:45:48.633Z,18.48
2017-08-21T12:46:57.635Z,18.41
2017-08-21T12:48:06.714Z,18.51
2017-08-21T12:49:15.681Z,18.45
2017-08-21T12:50:24.680Z,18.37
2017-08-21T12:51:33.636Z,18.48
2017-08-21T12:52:42.590Z,18.45
2017-08-21T12:53:51.552Z,18.41
2017-08-21T12:55:00.507Z,18.33
2017-08-21T12:56:09.496Z,18.47
2017-08-21T12:57:18.498Z,18.47
2017-08-21T12:58:27.463Z,18.52
2017-08-21T12:59:36.423Z,18.58
2017-08-21T13:00:45.398Z,18.57
2017-08-21T13:01:54.354Z,18.63
2017-08-21T13:03:03.435Z,18.73
2017-08-21T13:04:12.726Z,18.75
2017-08-21T13:05:21.684Z,18.92
2017-08-21T13:06:30.645Z,18.99
2017-08-21T13:07:39.615Z,19
2017-08-21T13:08:48.569Z,19.14
2017-08-21T13:09:57.548Z,19.19
2017-08-21T13:11:06.510Z,19.28
2017-08-21T13:12:15.532Z,19.46
2017-08-21T13:13:24.490Z,19.62
2017-08-21T13:14:33.447Z,19.56
2017-08-21T13:15:42.536Z,19.65
2017-08-21T13:16:51.717Z,19.58
2017-08-21T13:18:00.690Z,19.68
2017-08-21T13:19:09.687Z,19.59
2017-08-21T13:20:18.670Z,19.71
2017-08-21T13:21:27.649Z,19.63
2017-08-21T13:22:36.643Z,19.69
2017-08-21T13:23:45.628Z,19.74
2017-08-21T13:24:54.613Z,19.76
2017-08-21T13:26:03.599Z,19.77
2017-08-21T13:27:12.586Z,19.84
2017-08-21T13:28:21.882Z,19.91
2017-08-21T13:29:31.009Z,19.94
2017-08-21T13:30:39.993Z,19.91
2017-08-21T13:31:48.993Z,19.91
2017-08-21T13:32:57.977Z,19.84
2017-08-21T13:34:07.283Z,19.92
2017-08-21T13:35:16.266Z,19.88
2017-08-21T13:36:25.242Z,19.86
2017-08-21T13:37:34.229Z,19.87
2017-08-21T13:38:43.209Z,19.87
2017-08-21T13:39:52.188Z,19.87
2017-08-21T13:41:01.167Z,19.84
2017-08-21T13:42:10.323Z,19.87
2017-08-21T13:43:19.508Z,19.88
2017-08-21T13:44:28.968Z,19.94
2017-08-21T13:45:38.274Z,19.91
2017-08-21T13:46:47.510Z,19.87
2017-08-21T13:47:56.637Z,19.94
2017-08-21T13:49:05.748Z,19.91
2017-08-21T13:50:14.768Z,19.83
2017-08-21T13:51:24.068Z,19.74
2017-08-21T13:52:33.090Z,19.77
2017-08-21T13:53:42.952Z,19.78
2017-08-21T13:54:53.244Z,19.83
2017-08-21T13:56:02.556Z,19.73
2017-08-21T13:57:11.694Z,19.78
2017-08-21T13:58:20.759Z,19.66
2017-08-21T13:59:29.870Z,19.73
2017-08-21T14:00:38.924Z,19.63
2017-08-21T14:01:47.911Z,19.65
2017-08-21T14:02:56.868Z,19.55
2017-08-21T14:04:05.842Z,19.41
2017-08-21T14:05:14.795Z,19.31
2017-08-21T14:06:23.771Z,19.33
2017-08-21T14:07:32.732Z,19.26
2017-08-21T14:08:42.194Z,19.16
2017-08-21T14:09:51.234Z,19.13
2017-08-21T14:11:00.529Z,19.04
2017-08-21T14:12:09.926Z,18.85
2017-08-21T14:13:19.012Z,18.69
2017-08-21T14:14:28.098Z,18.6
2017-08-21T14:15:37.271Z,18.5
2017-08-21T14:16:46.622Z,18.37
2017-08-21T14:17:55.757Z,18.35
2017-08-21T14:19:04.900Z,18.3
2017-08-21T14:20:14.270Z,18.15
2017-08-21T14:21:23.467Z,18.23
2017-08-21T14:22:32.552Z,18.12
2017-08-21T14:23:41.769Z,18.12
2017-08-21T14:24:50.912Z,18.11
2017-08-21T14:25:59.908Z,18.1
2017-08-21T14:27:08.866Z,18.1
2017-08-21T14:28:17.825Z,18.07
2017-08-21T14:29:26.783Z,18.05
2017-08-21T14:30:36.057Z,18.02
2017-08-21T14:31:45.063Z,18.03
2017-08-21T14:32:54.056Z,18
2017-08-21T14:34:03.290Z,18.08
2017-08-21T14:35:12.420Z,17.97
2017-08-21T14:36:21.848Z,17.93
2017-08-21T14:37:30.843Z,17.93
2017-08-21T14:38:39.812Z,17.86
2017-08-21T14:39:48.791Z,17.84
2017-08-21T14:40:57.812Z,17.84
2017-08-21T14:42:06.899Z,17.77
2017-08-21T14:43:16.020Z,17.71
2017-08-21T14:44:24.977Z,17.79
2017-08-21T14:45:33.959Z,17.74
2017-08-21T14:46:42.995Z,17.74
2017-08-21T14:47:52.280Z,17.78
2017-08-21T14:49:01.238Z,17.77
2017-08-21T14:50:10.196Z,17.74
2017-08-21T14:51:19.958Z,17.74
2017-08-21T14:52:28.914Z,17.72
2017-08-21T14:53:38.010Z,17.79
2017-08-21T14:54:46.985Z,17.78
2017-08-21T14:55:56.006Z,17.82
2017-08-21T14:57:05.071Z,17.81
2017-08-21T14:58:14.036Z,17.84